sensor_id;sensor_type;location;lat;lon;timestamp;pressure;altitude;pressure_sealevel;temperature
19282;BMP180;9774;52.034;5.342;2023-03-12T00:02:18;100925.00;;;8.90
19282;BMP180;9774;52.034;5.342;2023-03-12T00:04:47;100917.00;;;9.00
19282;BMP180;9774;52.034;5.342;2023-03-12T00:07:14;100914.00;;;9.00
19282;BMP180;9774;52.034;5.342;2023-03-12T00:09:41;100911.00;;;9.00
19282;BMP180;9774;52.034;5.342;2023-03-12T00:12:09;100908.00;;;9.00
19282;BMP180;9774;52.034;5.342;2023-03-12T00:14:36;100901.00;;;9.00
19282;BMP180;9774;52.034;5.342;2023-03-12T00:17:04;100902.00;;;9.10
19282;BMP180;9774;52.034;5.342;2023-03-12T00:19:32;100896.00;;;9.10
19282;BMP180;9774;52.034;5.342;2023-03-12T00:21:59;100903.00;;;9.10
19282;BMP180;9774;52.034;5.342;2023-03-12T00:24:27;100905.00;;;9.10
19282;BMP180;9774;52.034;5.342;2023-03-12T00:26:54;100900.00;;;9.10
19282;BMP180;9774;52.034;5.342;2023-03-12T00:29:21;100896.00;;;9.20
19282;BMP180;9774;52.034;5.342;2023-03-12T00:31:49;100896.00;;;9.20
19282;BMP180;9774;52.034;5.342;2023-03-12T00:34:16;100896.00;;;9.20
19282;BMP180;9774;52.034;5.342;2023-03-12T00:36:45;100891.00;;;9.20
19282;BMP180;9774;52.034;5.342;2023-03-12T00:39:12;100891.00;;;9.20
19282;BMP180;9774;52.034;5.342;2023-03-12T00:41:39;100901.00;;;9.20
19282;BMP180;9774;52.034;5.342;2023-03-12T00:44:07;100898.00;;;9.20
19282;BMP180;9774;52.034;5.342;2023-03-12T00:46:34;100899.00;;;9.30
19282;BMP180;9774;52.034;5.342;2023-03-12T00:49:01;100894.00;;;9.30
19282;BMP180;9774;52.034;5.342;2023-03-12T00:51:29;100888.00;;;9.30
19282;BMP180;9774;52.034;5.342;2023-03-12T00:53:57;100896.00;;;9.30
19282;BMP180;9774;52.034;5.342;2023-03-12T00:56:25;100889.00;;;9.30
19282;BMP180;9774;52.034;5.342;2023-03-12T00:58:52;100897.00;;;9.30
19282;BMP180;9774;52.034;5.342;2023-03-12T01:01:19;100886.00;;;9.30
19282;BMP180;9774;52.034;5.342;2023-03-12T01:03:47;100882.00;;;9.30
19282;BMP180;9774;52.034;5.342;2023-03-12T01:06:16;100877.00;;;9.30
19282;BMP180;9774;52.034;5.342;2023-03-12T01:08:44;100863.00;;;9.30
19282;BMP180;9774;52.034;5.342;2023-03-12T01:11:14;100861.00;;;9.30
19282;BMP180;9774;52.034;5.342;2023-03-12T01:13:42;100854.00;;;9.40
19282;BMP180;9774;52.034;5.342;2023-03-12T01:16:09;100853.00;;;9.40
19282;BMP180;9774;52.034;5.342;2023-03-12T01:18:37;100851.00;;;9.40
19282;BMP180;9774;52.034;5.342;2023-03-12T01:21:05;100853.00;;;9.40
19282;BMP180;9774;52.034;5.342;2023-03-12T01:23:32;100854.00;;;9.40
19282;BMP180;9774;52.034;5.342;2023-03-12T01:25:59;100854.00;;;9.40
19282;BMP180;9774;52.034;5.342;2023-03-12T01:28:28;100860.00;;;9.40
19282;BMP180;9774;52.034;5.342;2023-03-12T01:30:55;100854.00;;;9.40
19282;BMP180;9774;52.034;5.342;2023-03-12T01:33:22;100858.00;;;9.50
19282;BMP180;9774;52.034;5.342;2023-03-12T01:35:50;100858.00;;;9.50
19282;BMP180;9774;52.034;5.342;2023-03-12T01:38:17;100855.00;;;9.50
19282;BMP180;9774;52.034;5.342;2023-03-12T01:40:45;100859.00;;;9.50
19282;BMP180;9774;52.034;5.342;2023-03-12T01:43:27;100854.00;;;9.40
19282;BMP180;9774;52.034;5.342;2023-03-12T01:46:17;100850.00;;;9.40
19282;BMP180;9774;52.034;5.342;2023-03-12T01:48:50;100839.00;;;9.50
19282;BMP180;9774;52.034;5.342;2023-03-12T01:51:20;100838.00;;;9.50
19282;BMP180;9774;52.034;5.342;2023-03-12T01:53:51;100834.00;;;9.50
19282;BMP180;9774;52.034;5.342;2023-03-12T01:56:20;100834.00;;;9.60
19282;BMP180;9774;52.034;5.342;2023-03-12T01:58:53;100837.00;;;9.50
19282;BMP180;9774;52.034;5.342;2023-03-12T02:01:22;100828.00;;;9.60
19282;BMP180;9774;52.034;5.342;2023-03-12T02:03:51;100834.00;;;9.60
19282;BMP180;9774;52.034;5.342;2023-03-12T02:06:24;100832.00;;;9.60
19282;BMP180;9774;52.034;5.342;2023-03-12T02:08:52;100822.00;;;9.70
19282;BMP180;9774;52.034;5.342;2023-03-12T02:11:20;100818.00;;;9.70
19282;BMP180;9774;52.034;5.342;2023-03-12T02:13:49;100812.00;;;9.70
19282;BMP180;9774;52.034;5.342;2023-03-12T02:16:16;100804.00;;;9.70
19282;BMP180;9774;52.034;5.342;2023-03-12T02:18:44;100807.00;;;9.70
19282;BMP180;9774;52.034;5.342;2023-03-12T02:21:17;100803.00;;;9.70
19282;BMP180;9774;52.034;5.342;2023-03-12T02:23:51;100797.00;;;9.70
19282;BMP180;9774;52.034;5.342;2023-03-12T02:26:24;100797.00;;;9.70
19282;BMP180;9774;52.034;5.342;2023-03-12T02:28:52;100792.00;;;9.80
19282;BMP180;9774;52.034;5.342;2023-03-12T02:31:23;100787.00;;;9.70
19282;BMP180;9774;52.034;5.342;2023-03-12T02:33:51;100781.00;;;9.80
19282;BMP180;9774;52.034;5.342;2023-03-12T02:36:21;100777.00;;;9.80
19282;BMP180;9774;52.034;5.342;2023-03-12T02:38:49;100774.00;;;9.80
19282;BMP180;9774;52.034;5.342;2023-03-12T02:41:21;100769.00;;;9.80
19282;BMP180;9774;52.034;5.342;2023-03-12T02:43:55;100762.00;;;9.80
19282;BMP180;9774;52.034;5.342;2023-03-12T02:46:24;100761.00;;;9.80
19282;BMP180;9774;52.034;5.342;2023-03-12T02:48:52;100763.00;;;9.80
19282;BMP180;9774;52.034;5.342;2023-03-12T02:51:19;100763.00;;;9.80
19282;BMP180;9774;52.034;5.342;2023-03-12T02:53:46;100763.00;;;9.90
19282;BMP180;9774;52.034;5.342;2023-03-12T02:56:21;100762.00;;;9.90
19282;BMP180;9774;52.034;5.342;2023-03-12T02:58:49;100749.00;;;9.80
19282;BMP180;9774;52.034;5.342;2023-03-12T03:01:16;100750.00;;;9.90
19282;BMP180;9774;52.034;5.342;2023-03-12T03:03:44;100742.00;;;9.90
19282;BMP180;9774;52.034;5.342;2023-03-12T03:06:12;100746.00;;;9.90
19282;BMP180;9774;52.034;5.342;2023-03-12T03:08:40;100734.00;;;9.90
19282;BMP180;9774;52.034;5.342;2023-03-12T03:11:08;100726.00;;;9.90
19282;BMP180;9774;52.034;5.342;2023-03-12T03:13:37;100727.00;;;9.90
19282;BMP180;9774;52.034;5.342;2023-03-12T03:16:04;100728.00;;;9.90
19282;BMP180;9774;52.034;5.342;2023-03-12T03:18:32;100733.00;;;9.90
19282;BMP180;9774;52.034;5.342;2023-03-12T03:21:01;100733.00;;;9.90
19282;BMP180;9774;52.034;5.342;2023-03-12T03:23:29;100727.00;;;9.90
19282;BMP180;9774;52.034;5.342;2023-03-12T03:25:56;100712.00;;;9.90
19282;BMP180;9774;52.034;5.342;2023-03-12T03:28:26;100712.00;;;9.90
19282;BMP180;9774;52.034;5.342;2023-03-12T03:30:56;100711.00;;;9.90
19282;BMP180;9774;52.034;5.342;2023-03-12T03:33:26;100702.00;;;9.90
19282;BMP180;9774;52.034;5.342;2023-03-12T03:35:53;100699.00;;;9.90
19282;BMP180;9774;52.034;5.342;2023-03-12T03:38:21;100710.00;;;9.90
19282;BMP180;9774;52.034;5.342;2023-03-12T03:40:49;100710.00;;;9.90
19282;BMP180;9774;52.034;5.342;2023-03-12T03:43:16;100696.00;;;9.90
19282;BMP180;9774;52.034;5.342;2023-03-12T03:45:43;100694.00;;;9.90
19282;BMP180;9774;52.034;5.342;2023-03-12T03:48:12;100682.00;;;9.90
19282;BMP180;9774;52.034;5.342;2023-03-12T03:50:40;100680.00;;;9.90
19282;BMP180;9774;52.034;5.342;2023-03-12T03:53:08;100685.00;;;9.90
19282;BMP180;9774;52.034;5.342;2023-03-12T03:55:37;100687.00;;;9.90
19282;BMP180;9774;52.034;5.342;2023-03-12T03:58:05;100689.00;;;9.90
19282;BMP180;9774;52.034;5.342;2023-03-12T04:00:32;100699.00;;;9.90
19282;BMP180;9774;52.034;5.342;2023-03-12T04:03:00;100691.00;;;9.90
19282;BMP180;9774;52.034;5.342;2023-03-12T04:05:29;100686.00;;;9.90
19282;BMP180;9774;52.034;5.342;2023-03-12T04:07:56;100690.00;;;10.00
19282;BMP180;9774;52.034;5.342;2023-03-12T04:10:28;100685.00;;;9.90
19282;BMP180;9774;52.034;5.342;2023-03-12T04:12:56;100676.00;;;9.90
19282;BMP180;9774;52.034;5.342;2023-03-12T04:15:24;100676.00;;;9.90
19282;BMP180;9774;52.034;5.342;2023-03-12T04:17:51;100671.00;;;9.90
19282;BMP180;9774;52.034;5.342;2023-03-12T04:20:18;100679.00;;;9.90
19282;BMP180;9774;52.034;5.342;2023-03-12T04:22:47;100682.00;;;9.90
19282;BMP180;9774;52.034;5.342;2023-03-12T04:25:14;100671.00;;;9.90
19282;BMP180;9774;52.034;5.342;2023-03-12T04:27:42;100661.00;;;9.90
19282;BMP180;9774;52.034;5.342;2023-03-12T04:30:10;100660.00;;;9.90
19282;BMP180;9774;52.034;5.342;2023-03-12T04:32:37;100660.00;;;10.00
19282;BMP180;9774;52.034;5.342;2023-03-12T04:35:05;100660.00;;;10.00
19282;BMP180;9774;52.034;5.342;2023-03-12T04:37:32;100654.00;;;10.00
19282;BMP180;9774;52.034;5.342;2023-03-12T04:40:02;100655.00;;;9.90
19282;BMP180;9774;52.034;5.342;2023-03-12T04:42:33;100642.00;;;10.00
19282;BMP180;9774;52.034;5.342;2023-03-12T04:45:00;100641.00;;;10.00
19282;BMP180;9774;52.034;5.342;2023-03-12T04:47:30;100638.00;;;10.00
19282;BMP180;9774;52.034;5.342;2023-03-12T04:49:57;100621.00;;;10.00
19282;BMP180;9774;52.034;5.342;2023-03-12T04:52:25;100623.00;;;10.00
19282;BMP180;9774;52.034;5.342;2023-03-12T04:54:52;100609.00;;;10.00
19282;BMP180;9774;52.034;5.342;2023-03-12T04:57:21;100605.00;;;10.00
19282;BMP180;9774;52.034;5.342;2023-03-12T04:59:48;100610.00;;;10.00
19282;BMP180;9774;52.034;5.342;2023-03-12T05:02:16;100601.00;;;10.10
19282;BMP180;9774;52.034;5.342;2023-03-12T05:04:43;100590.00;;;10.10
19282;BMP180;9774;52.034;5.342;2023-03-12T05:07:10;100580.00;;;10.10
19282;BMP180;9774;52.034;5.342;2023-03-12T05:09:39;100573.00;;;10.10
19282;BMP180;9774;52.034;5.342;2023-03-12T05:12:07;100570.00;;;10.10
19282;BMP180;9774;52.034;5.342;2023-03-12T05:14:35;100567.00;;;10.10
19282;BMP180;9774;52.034;5.342;2023-03-12T05:17:04;100563.00;;;10.10
19282;BMP180;9774;52.034;5.342;2023-03-12T05:19:32;100563.00;;;10.10
19282;BMP180;9774;52.034;5.342;2023-03-12T05:21:59;100569.00;;;10.00
19282;BMP180;9774;52.034;5.342;2023-03-12T05:24:27;100571.00;;;10.00
19282;BMP180;9774;52.034;5.342;2023-03-12T05:26:54;100569.00;;;10.00
19282;BMP180;9774;52.034;5.342;2023-03-12T05:29:22;100570.00;;;10.00
19282;BMP180;9774;52.034;5.342;2023-03-12T05:31:52;100570.00;;;10.00
19282;BMP180;9774;52.034;5.342;2023-03-12T05:34:20;100562.00;;;10.10
19282;BMP180;9774;52.034;5.342;2023-03-12T05:36:47;100560.00;;;10.10
19282;BMP180;9774;52.034;5.342;2023-03-12T05:39:14;100553.00;;;10.10
19282;BMP180;9774;52.034;5.342;2023-03-12T05:41:42;100556.00;;;10.10
19282;BMP180;9774;52.034;5.342;2023-03-12T05:44:11;100554.00;;;10.10
19282;BMP180;9774;52.034;5.342;2023-03-12T05:46:38;100555.00;;;10.10
19282;BMP180;9774;52.034;5.342;2023-03-12T05:49:07;100551.00;;;10.10
19282;BMP180;9774;52.034;5.342;2023-03-12T05:51:34;100552.00;;;10.10
19282;BMP180;9774;52.034;5.342;2023-03-12T05:54:02;100549.00;;;10.10
19282;BMP180;9774;52.034;5.342;2023-03-12T05:56:29;100551.00;;;10.10
19282;BMP180;9774;52.034;5.342;2023-03-12T05:58:57;100552.00;;;10.10
19282;BMP180;9774;52.034;5.342;2023-03-12T06:01:26;100547.00;;;10.10
19282;BMP180;9774;52.034;5.342;2023-03-12T06:03:54;100549.00;;;10.10
19282;BMP180;9774;52.034;5.342;2023-03-12T06:06:24;100547.00;;;10.10
19282;BMP180;9774;52.034;5.342;2023-03-12T06:08:51;100558.00;;;10.20
19282;BMP180;9774;52.034;5.342;2023-03-12T06:11:19;100560.00;;;10.20
19282;BMP180;9774;52.034;5.342;2023-03-12T06:13:46;100564.00;;;10.20
19282;BMP180;9774;52.034;5.342;2023-03-12T06:16:17;100568.00;;;10.20
19282;BMP180;9774;52.034;5.342;2023-03-12T06:18:45;100555.00;;;10.20
19282;BMP180;9774;52.034;5.342;2023-03-12T06:21:14;100554.00;;;10.20
19282;BMP180;9774;52.034;5.342;2023-03-12T06:23:43;100558.00;;;10.10
19282;BMP180;9774;52.034;5.342;2023-03-12T06:26:11;100555.00;;;10.10
19282;BMP180;9774;52.034;5.342;2023-03-12T06:28:39;100557.00;;;10.20
19282;BMP180;9774;52.034;5.342;2023-03-12T06:31:07;100554.00;;;10.20
19282;BMP180;9774;52.034;5.342;2023-03-12T06:33:34;100545.00;;;10.10
19282;BMP180;9774;52.034;5.342;2023-03-12T06:36:04;100537.00;;;10.10
19282;BMP180;9774;52.034;5.342;2023-03-12T06:38:32;100538.00;;;10.10
19282;BMP180;9774;52.034;5.342;2023-03-12T06:41:03;100533.00;;;10.10
19282;BMP180;9774;52.034;5.342;2023-03-12T06:43:32;100534.00;;;10.10
19282;BMP180;9774;52.034;5.342;2023-03-12T06:46:00;100531.00;;;10.10
19282;BMP180;9774;52.034;5.342;2023-03-12T06:48:29;100526.00;;;10.10
19282;BMP180;9774;52.034;5.342;2023-03-12T06:50:58;100526.00;;;10.20
19282;BMP180;9774;52.034;5.342;2023-03-12T06:53:25;100526.00;;;10.20
19282;BMP180;9774;52.034;5.342;2023-03-12T06:55:53;100521.00;;;10.20
19282;BMP180;9774;52.034;5.342;2023-03-12T06:58:21;100514.00;;;10.20
19282;BMP180;9774;52.034;5.342;2023-03-12T07:00:49;100508.00;;;10.20
19282;BMP180;9774;52.034;5.342;2023-03-12T07:03:16;100506.00;;;10.20
19282;BMP180;9774;52.034;5.342;2023-03-12T07:05:44;100506.00;;;10.20
19282;BMP180;9774;52.034;5.342;2023-03-12T07:08:13;100499.00;;;10.20
19282;BMP180;9774;52.034;5.342;2023-03-12T07:10:40;100493.00;;;10.20
19282;BMP180;9774;52.034;5.342;2023-03-12T07:13:08;100497.00;;;10.20
19282;BMP180;9774;52.034;5.342;2023-03-12T07:15:36;100491.00;;;10.20
19282;BMP180;9774;52.034;5.342;2023-03-12T07:18:04;100485.00;;;10.30
19282;BMP180;9774;52.034;5.342;2023-03-12T07:20:32;100500.00;;;10.20
19282;BMP180;9774;52.034;5.342;2023-03-12T07:23:00;100485.00;;;10.20
19282;BMP180;9774;52.034;5.342;2023-03-12T07:25:27;100497.00;;;10.20
19282;BMP180;9774;52.034;5.342;2023-03-12T07:27:54;100496.00;;;10.20
19282;BMP180;9774;52.034;5.342;2023-03-12T07:30:22;100486.00;;;10.30
19282;BMP180;9774;52.034;5.342;2023-03-12T07:32:50;100494.00;;;10.20
19282;BMP180;9774;52.034;5.342;2023-03-12T07:35:18;100494.00;;;10.20
19282;BMP180;9774;52.034;5.342;2023-03-12T07:37:45;100502.00;;;10.30
19282;BMP180;9774;52.034;5.342;2023-03-12T07:40:12;100498.00;;;10.30
19282;BMP180;9774;52.034;5.342;2023-03-12T07:42:40;100500.00;;;10.30
19282;BMP180;9774;52.034;5.342;2023-03-12T07:45:07;100511.00;;;10.30
19282;BMP180;9774;52.034;5.342;2023-03-12T07:47:35;100500.00;;;10.30
19282;BMP180;9774;52.034;5.342;2023-03-12T07:50:04;100508.00;;;10.20
19282;BMP180;9774;52.034;5.342;2023-03-12T07:52:31;100514.00;;;10.30
19282;BMP180;9774;52.034;5.342;2023-03-12T07:54:59;100511.00;;;10.30
19282;BMP180;9774;52.034;5.342;2023-03-12T07:57:26;100510.00;;;10.30
19282;BMP180;9774;52.034;5.342;2023-03-12T07:59:53;100508.00;;;10.40
19282;BMP180;9774;52.034;5.342;2023-03-12T08:02:20;100514.00;;;10.40
19282;BMP180;9774;52.034;5.342;2023-03-12T08:04:48;100516.00;;;10.40
19282;BMP180;9774;52.034;5.342;2023-03-12T08:07:16;100524.00;;;10.40
19282;BMP180;9774;52.034;5.342;2023-03-12T08:09:45;100518.00;;;10.50
19282;BMP180;9774;52.034;5.342;2023-03-12T08:12:14;100510.00;;;10.50
19282;BMP180;9774;52.034;5.342;2023-03-12T08:14:41;100515.00;;;10.50
19282;BMP180;9774;52.034;5.342;2023-03-12T08:17:08;100512.00;;;10.50
19282;BMP180;9774;52.034;5.342;2023-03-12T08:19:36;100499.00;;;10.50
19282;BMP180;9774;52.034;5.342;2023-03-12T08:22:05;100511.00;;;10.60
19282;BMP180;9774;52.034;5.342;2023-03-12T08:24:33;100514.00;;;10.60
19282;BMP180;9774;52.034;5.342;2023-03-12T08:27:01;100502.00;;;10.70
19282;BMP180;9774;52.034;5.342;2023-03-12T08:29:28;100507.00;;;10.70
19282;BMP180;9774;52.034;5.342;2023-03-12T08:31:57;100504.00;;;10.80
19282;BMP180;9774;52.034;5.342;2023-03-12T08:34:25;100505.00;;;10.80
19282;BMP180;9774;52.034;5.342;2023-03-12T08:36:52;100514.00;;;10.90
19282;BMP180;9774;52.034;5.342;2023-03-12T08:39:19;100508.00;;;10.90
19282;BMP180;9774;52.034;5.342;2023-03-12T08:41:48;100500.00;;;10.90
19282;BMP180;9774;52.034;5.342;2023-03-12T08:44:16;100520.00;;;11.00
19282;BMP180;9774;52.034;5.342;2023-03-12T08:46:43;100520.00;;;11.00
19282;BMP180;9774;52.034;5.342;2023-03-12T08:49:12;100515.00;;;11.00
19282;BMP180;9774;52.034;5.342;2023-03-12T08:51:39;100517.00;;;11.10
19282;BMP180;9774;52.034;5.342;2023-03-12T08:54:07;100516.00;;;11.10
19282;BMP180;9774;52.034;5.342;2023-03-12T08:56:35;100527.00;;;11.10
19282;BMP180;9774;52.034;5.342;2023-03-12T08:59:08;100525.00;;;11.20
19282;BMP180;9774;52.034;5.342;2023-03-12T09:01:35;100524.00;;;11.20
19282;BMP180;9774;52.034;5.342;2023-03-12T09:04:03;100539.00;;;11.30
19282;BMP180;9774;52.034;5.342;2023-03-12T09:06:31;100536.00;;;11.30
19282;BMP180;9774;52.034;5.342;2023-03-12T09:09:00;100535.00;;;11.40
19282;BMP180;9774;52.034;5.342;2023-03-12T09:11:30;100522.00;;;11.40
19282;BMP180;9774;52.034;5.342;2023-03-12T09:13:57;100530.00;;;11.40
19282;BMP180;9774;52.034;5.342;2023-03-12T09:16:26;100528.00;;;11.50
19282;BMP180;9774;52.034;5.342;2023-03-12T09:18:54;100519.00;;;11.50
19282;BMP180;9774;52.034;5.342;2023-03-12T09:21:21;100520.00;;;11.50
19282;BMP180;9774;52.034;5.342;2023-03-12T09:23:49;100510.00;;;11.60
19282;BMP180;9774;52.034;5.342;2023-03-12T09:26:16;100518.00;;;11.70
19282;BMP180;9774;52.034;5.342;2023-03-12T09:28:43;100515.00;;;11.70
19282;BMP180;9774;52.034;5.342;2023-03-12T09:31:11;100495.00;;;11.80
19282;BMP180;9774;52.034;5.342;2023-03-12T09:33:40;100508.00;;;11.80
19282;BMP180;9774;52.034;5.342;2023-03-12T09:36:07;100514.00;;;11.90
19282;BMP180;9774;52.034;5.342;2023-03-12T09:38:35;100526.00;;;11.90
19282;BMP180;9774;52.034;5.342;2023-03-12T09:41:03;100519.00;;;12.00
19282;BMP180;9774;52.034;5.342;2023-03-12T09:43:35;100515.00;;;12.00
19282;BMP180;9774;52.034;5.342;2023-03-12T09:46:07;100523.00;;;12.10
19282;BMP180;9774;52.034;5.342;2023-03-12T09:48:37;100526.00;;;12.20
19282;BMP180;9774;52.034;5.342;2023-03-12T09:51:13;100525.00;;;12.20
19282;BMP180;9774;52.034;5.342;2023-03-12T09:53:44;100526.00;;;12.30
19282;BMP180;9774;52.034;5.342;2023-03-12T09:56:16;100530.00;;;12.40
19282;BMP180;9774;52.034;5.342;2023-03-12T09:58:44;100535.00;;;12.40
19282;BMP180;9774;52.034;5.342;2023-03-12T10:01:32;100537.00;;;12.40
19282;BMP180;9774;52.034;5.342;2023-03-12T10:04:23;100542.00;;;12.50
19282;BMP180;9774;52.034;5.342;2023-03-12T10:07:01;100533.00;;;12.60
19282;BMP180;9774;52.034;5.342;2023-03-12T10:09:58;100534.00;;;12.60
19282;BMP180;9774;52.034;5.342;2023-03-12T10:12:35;100533.00;;;12.70
19282;BMP180;9774;52.034;5.342;2023-03-12T10:15:16;100531.00;;;12.80
19282;BMP180;9774;52.034;5.342;2023-03-12T10:17:55;100527.00;;;12.80
19282;BMP180;9774;52.034;5.342;2023-03-12T10:20:39;100531.00;;;12.90
19282;BMP180;9774;52.034;5.342;2023-03-12T10:23:15;100521.00;;;13.00
19282;BMP180;9774;52.034;5.342;2023-03-12T10:25:47;100516.00;;;13.10
19282;BMP180;9774;52.034;5.342;2023-03-12T10:28:24;100517.00;;;13.20
19282;BMP180;9774;52.034;5.342;2023-03-12T10:30:58;100526.00;;;13.30
19282;BMP180;9774;52.034;5.342;2023-03-12T10:33:38;100521.00;;;13.30
19282;BMP180;9774;52.034;5.342;2023-03-12T10:36:14;100523.00;;;13.50
19282;BMP180;9774;52.034;5.342;2023-03-12T10:38:44;100526.00;;;13.60
19282;BMP180;9774;52.034;5.342;2023-03-12T10:41:15;100531.00;;;13.60
19282;BMP180;9774;52.034;5.342;2023-03-12T10:43:42;100530.00;;;13.70
19282;BMP180;9774;52.034;5.342;2023-03-12T10:46:37;100523.00;;;13.80
19282;BMP180;9774;52.034;5.342;2023-03-12T10:49:29;100521.00;;;13.90
19282;BMP180;9774;52.034;5.342;2023-03-12T10:51:59;100512.00;;;14.10
19282;BMP180;9774;52.034;5.342;2023-03-12T10:54:30;100515.00;;;14.20
19282;BMP180;9774;52.034;5.342;2023-03-12T10:56:58;100519.00;;;14.30
19282;BMP180;9774;52.034;5.342;2023-03-12T10:59:28;100527.00;;;14.40
19282;BMP180;9774;52.034;5.342;2023-03-12T11:01:57;100528.00;;;14.50
19282;BMP180;9774;52.034;5.342;2023-03-12T11:04:27;100519.00;;;14.60
19282;BMP180;9774;52.034;5.342;2023-03-12T11:07:17;100522.00;;;14.50
19282;BMP180;9774;52.034;5.342;2023-03-12T11:09:52;100519.00;;;14.70
19282;BMP180;9774;52.034;5.342;2023-03-12T11:12:29;100521.00;;;14.80
19282;BMP180;9774;52.034;5.342;2023-03-12T11:14:57;100527.00;;;14.90
19282;BMP180;9774;52.034;5.342;2023-03-12T11:17:26;100517.00;;;15.00
19282;BMP180;9774;52.034;5.342;2023-03-12T11:19:54;100540.00;;;15.10
19282;BMP180;9774;52.034;5.342;2023-03-12T11:22:29;100548.00;;;15.10
19282;BMP180;9774;52.034;5.342;2023-03-12T11:25:01;100549.00;;;15.20
19282;BMP180;9774;52.034;5.342;2023-03-12T11:27:39;100555.00;;;15.20
19282;BMP180;9774;52.034;5.342;2023-03-12T11:30:11;100557.00;;;15.30
19282;BMP180;9774;52.034;5.342;2023-03-12T11:32:42;100556.00;;;15.30
19282;BMP180;9774;52.034;5.342;2023-03-12T11:35:13;100557.00;;;15.40
19282;BMP180;9774;52.034;5.342;2023-03-12T11:37:50;100545.00;;;15.40
19282;BMP180;9774;52.034;5.342;2023-03-12T11:40:33;100542.00;;;15.40
19282;BMP180;9774;52.034;5.342;2023-03-12T11:43:18;100542.00;;;15.50
19282;BMP180;9774;52.034;5.342;2023-03-12T11:46:01;100548.00;;;15.50
19282;BMP180;9774;52.034;5.342;2023-03-12T11:48:40;100542.00;;;15.60
19282;BMP180;9774;52.034;5.342;2023-03-12T11:51:18;100540.00;;;15.60
19282;BMP180;9774;52.034;5.342;2023-03-12T11:54:05;100535.00;;;15.60
19282;BMP180;9774;52.034;5.342;2023-03-12T11:56:39;100534.00;;;15.70
19282;BMP180;9774;52.034;5.342;2023-03-12T11:59:34;100538.00;;;15.70
19282;BMP180;9774;52.034;5.342;2023-03-12T12:02:19;100518.00;;;15.80
19282;BMP180;9774;52.034;5.342;2023-03-12T12:05:09;100520.00;;;15.80
19282;BMP180;9774;52.034;5.342;2023-03-12T12:07:55;100517.00;;;15.90
19282;BMP180;9774;52.034;5.342;2023-03-12T12:10:29;100516.00;;;16.00
19282;BMP180;9774;52.034;5.342;2023-03-12T12:13:06;100512.00;;;16.00
19282;BMP180;9774;52.034;5.342;2023-03-12T12:15:43;100518.00;;;16.10
19282;BMP180;9774;52.034;5.342;2023-03-12T12:18:33;100523.00;;;16.10
19282;BMP180;9774;52.034;5.342;2023-03-12T12:21:05;100520.00;;;16.20
19282;BMP180;9774;52.034;5.342;2023-03-12T12:23:41;100524.00;;;16.20
19282;BMP180;9774;52.034;5.342;2023-03-12T12:26:14;100523.00;;;16.30
19282;BMP180;9774;52.034;5.342;2023-03-12T12:29:01;100511.00;;;16.20
19282;BMP180;9774;52.034;5.342;2023-03-12T12:31:40;100512.00;;;16.30
19282;BMP180;9774;52.034;5.342;2023-03-12T12:34:38;100502.00;;;16.40
19282;BMP180;9774;52.034;5.342;2023-03-12T12:37:20;100511.00;;;16.40
19282;BMP180;9774;52.034;5.342;2023-03-12T12:39:53;100504.00;;;16.50
19282;BMP180;9774;52.034;5.342;2023-03-12T12:42:27;100513.00;;;16.50
19282;BMP180;9774;52.034;5.342;2023-03-12T12:44:58;100517.00;;;16.50
19282;BMP180;9774;52.034;5.342;2023-03-12T12:47:36;100529.00;;;16.50
19282;BMP180;9774;52.034;5.342;2023-03-12T12:50:11;100519.00;;;16.60
19282;BMP180;9774;52.034;5.342;2023-03-12T12:52:40;100512.00;;;16.60
19282;BMP180;9774;52.034;5.342;2023-03-12T12:55:14;100504.00;;;16.60
19282;BMP180;9774;52.034;5.342;2023-03-12T12:57:46;100492.00;;;16.60
19282;BMP180;9774;52.034;5.342;2023-03-12T13:00:27;100485.00;;;16.60
19282;BMP180;9774;52.034;5.342;2023-03-12T13:02:59;100485.00;;;16.80
19282;BMP180;9774;52.034;5.342;2023-03-12T13:05:39;100493.00;;;16.80
19282;BMP180;9774;52.034;5.342;2023-03-12T13:08:07;100477.00;;;16.90
19282;BMP180;9774;52.034;5.342;2023-03-12T13:10:40;100465.00;;;16.90
19282;BMP180;9774;52.034;5.342;2023-03-12T13:13:17;100461.00;;;17.00
19282;BMP180;9774;52.034;5.342;2023-03-12T13:15:47;100456.00;;;17.10
19282;BMP180;9774;52.034;5.342;2023-03-12T13:18:23;100469.00;;;17.10
19282;BMP180;9774;52.034;5.342;2023-03-12T13:21:17;100486.00;;;17.10
19282;BMP180;9774;52.034;5.342;2023-03-12T13:23:54;100486.00;;;17.10
19282;BMP180;9774;52.034;5.342;2023-03-12T13:26:28;100474.00;;;17.10
19282;BMP180;9774;52.034;5.342;2023-03-12T13:29:11;100486.00;;;17.10
19282;BMP180;9774;52.034;5.342;2023-03-12T13:31:41;100481.00;;;17.10
19282;BMP180;9774;52.034;5.342;2023-03-12T13:37:26;100480.00;;;17.10
19282;BMP180;9774;52.034;5.342;2023-03-12T13:39:58;100483.00;;;17.20
19282;BMP180;9774;52.034;5.342;2023-03-12T13:42:35;100469.00;;;17.10
19282;BMP180;9774;52.034;5.342;2023-03-12T13:45:23;100486.00;;;17.10
19282;BMP180;9774;52.034;5.342;2023-03-12T13:47:56;100486.00;;;17.20
19282;BMP180;9774;52.034;5.342;2023-03-12T13:50:26;100503.00;;;17.30
19282;BMP180;9774;52.034;5.342;2023-03-12T13:53:06;100501.00;;;17.40
19282;BMP180;9774;52.034;5.342;2023-03-12T13:55:48;100493.00;;;17.60
19282;BMP180;9774;52.034;5.342;2023-03-12T13:58:17;100487.00;;;17.80
19282;BMP180;9774;52.034;5.342;2023-03-12T14:00:52;100493.00;;;18.10
19282;BMP180;9774;52.034;5.342;2023-03-12T14:03:25;100496.00;;;18.40
19282;BMP180;9774;52.034;5.342;2023-03-12T14:05:57;100499.00;;;18.90
19282;BMP180;9774;52.034;5.342;2023-03-12T14:08:49;100487.00;;;19.30
19282;BMP180;9774;52.034;5.342;2023-03-12T14:11:38;100498.00;;;19.90
19282;BMP180;9774;52.034;5.342;2023-03-12T14:14:37;100512.00;;;20.40
19282;BMP180;9774;52.034;5.342;2023-03-12T14:17:15;100512.00;;;20.80
19282;BMP180;9774;52.034;5.342;2023-03-12T14:19:48;100514.00;;;21.00
19282;BMP180;9774;52.034;5.342;2023-03-12T14:22:17;100522.00;;;21.20
19282;BMP180;9774;52.034;5.342;2023-03-12T14:24:50;100526.00;;;21.20
19282;BMP180;9774;52.034;5.342;2023-03-12T14:27:23;100531.00;;;21.40
19282;BMP180;9774;52.034;5.342;2023-03-12T14:29:54;100532.00;;;21.50
19282;BMP180;9774;52.034;5.342;2023-03-12T14:32:26;100530.00;;;21.60
19282;BMP180;9774;52.034;5.342;2023-03-12T14:35:07;100543.00;;;21.80
19282;BMP180;9774;52.034;5.342;2023-03-12T14:37:41;100551.00;;;22.00
19282;BMP180;9774;52.034;5.342;2023-03-12T14:40:21;100549.00;;;22.20